sensor_id;sensor_type;location;lat;lon;timestamp;P1;durP1;ratioP1;P2;durP2;ratioP2
51578;SDS011;47998;53.242;6.386;2024-02-23T00:00:27;3.75;;;0.40;;
51578;SDS011;47998;53.242;6.386;2024-02-23T00:02:53;4.85;;;1.25;;
51578;SDS011;47998;53.242;6.386;2024-02-23T00:05:21;5.47;;;0.50;;
51578;SDS011;47998;53.242;6.386;2024-02-23T00:07:47;2.22;;;0.40;;
51578;SDS011;47998;53.242;6.386;2024-02-23T00:10:13;9.73;;;0.98;;
51578;SDS011;47998;53.242;6.386;2024-02-23T00:12:38;3.30;;;0.28;;
51578;SDS011;47998;53.242;6.386;2024-02-23T00:15:04;3.22;;;0.60;;
51578;SDS011;47998;53.242;6.386;2024-02-23T00:17:30;6.28;;;0.82;;
51578;SDS011;47998;53.242;6.386;2024-02-23T00:19:56;7.13;;;0.85;;
51578;SDS011;47998;53.242;6.386;2024-02-23T00:22:22;3.33;;;0.60;;
51578;SDS011;47998;53.242;6.386;2024-02-23T00:24:47;10.00;;;1.42;;
51578;SDS011;47998;53.242;6.386;2024-02-23T00:27:13;7.22;;;0.85;;
51578;SDS011;47998;53.242;6.386;2024-02-23T00:29:39;8.65;;;1.08;;
51578;SDS011;47998;53.242;6.386;2024-02-23T00:32:05;3.58;;;0.85;;
51578;SDS011;47998;53.242;6.386;2024-02-23T00:34:32;3.40;;;0.43;;
51578;SDS011;47998;53.242;6.386;2024-02-23T00:36:57;5.72;;;1.27;;
51578;SDS011;47998;53.242;6.386;2024-02-23T00:39:23;3.33;;;0.57;;
51578;SDS011;47998;53.242;6.386;2024-02-23T00:41:49;14.80;;;1.00;;
51578;SDS011;47998;53.242;6.386;2024-02-23T00:44:14;4.65;;;1.30;;
51578;SDS011;47998;53.242;6.386;2024-02-23T00:46:40;6.55;;;1.08;;
51578;SDS011;47998;53.242;6.386;2024-02-23T00:49:06;8.23;;;1.05;;
51578;SDS011;47998;53.242;6.386;2024-02-23T00:51:32;3.83;;;0.38;;
51578;SDS011;47998;53.242;6.386;2024-02-23T00:53:57;5.35;;;1.08;;
51578;SDS011;47998;53.242;6.386;2024-02-23T00:56:23;8.10;;;0.98;;
51578;SDS011;47998;53.242;6.386;2024-02-23T00:58:50;4.90;;;0.50;;
51578;SDS011;47998;53.242;6.386;2024-02-23T01:01:16;2.70;;;0.40;;
51578;SDS011;47998;53.242;6.386;2024-02-23T01:03:41;6.40;;;0.80;;
51578;SDS011;47998;53.242;6.386;2024-02-23T01:06:07;6.25;;;0.90;;
51578;SDS011;47998;53.242;6.386;2024-02-23T01:08:33;2.58;;;0.70;;
51578;SDS011;47998;53.242;6.386;2024-02-23T01:10:59;5.85;;;0.68;;
51578;SDS011;47998;53.242;6.386;2024-02-23T01:13:25;8.30;;;0.88;;
51578;SDS011;47998;53.242;6.386;2024-02-23T01:15:51;11.25;;;1.25;;
51578;SDS011;47998;53.242;6.386;2024-02-23T01:18:18;5.18;;;1.10;;
51578;SDS011;47998;53.242;6.386;2024-02-23T01:20:44;8.80;;;1.23;;
51578;SDS011;47998;53.242;6.386;2024-02-23T01:23:10;7.18;;;1.45;;
51578;SDS011;47998;53.242;6.386;2024-02-23T01:25:36;10.90;;;1.73;;
51578;SDS011;47998;53.242;6.386;2024-02-23T01:28:02;8.30;;;1.85;;
51578;SDS011;47998;53.242;6.386;2024-02-23T01:30:28;10.05;;;1.60;;
51578;SDS011;47998;53.242;6.386;2024-02-23T01:32:54;13.57;;;2.30;;
51578;SDS011;47998;53.242;6.386;2024-02-23T01:35:20;12.10;;;2.25;;
51578;SDS011;47998;53.242;6.386;2024-02-23T01:37:46;11.20;;;1.45;;
51578;SDS011;47998;53.242;6.386;2024-02-23T01:40:11;6.85;;;1.65;;
51578;SDS011;47998;53.242;6.386;2024-02-23T01:42:37;11.05;;;1.92;;
51578;SDS011;47998;53.242;6.386;2024-02-23T01:45:03;12.95;;;1.98;;
51578;SDS011;47998;53.242;6.386;2024-02-23T01:47:30;11.85;;;2.65;;
51578;SDS011;47998;53.242;6.386;2024-02-23T01:49:57;16.50;;;2.95;;
51578;SDS011;47998;53.242;6.386;2024-02-23T01:52:23;10.77;;;1.73;;
51578;SDS011;47998;53.242;6.386;2024-02-23T01:54:49;22.38;;;1.98;;
51578;SDS011;47998;53.242;6.386;2024-02-23T01:57:16;10.93;;;1.05;;
51578;SDS011;47998;53.242;6.386;2024-02-23T01:59:42;7.80;;;1.02;;
51578;SDS011;47998;53.242;6.386;2024-02-23T02:02:08;5.97;;;1.67;;
51578;SDS011;47998;53.242;6.386;2024-02-23T02:04:34;6.40;;;0.95;;
51578;SDS011;47998;53.242;6.386;2024-02-23T02:06:59;12.52;;;2.15;;
51578;SDS011;47998;53.242;6.386;2024-02-23T02:09:26;15.40;;;1.65;;
51578;SDS011;47998;53.242;6.386;2024-02-23T02:11:52;14.93;;;1.85;;
51578;SDS011;47998;53.242;6.386;2024-02-23T02:14:18;15.05;;;1.98;;
51578;SDS011;47998;53.242;6.386;2024-02-23T02:16:44;17.40;;;2.22;;
51578;SDS011;47998;53.242;6.386;2024-02-23T02:19:13;8.43;;;2.03;;
51578;SDS011;47998;53.242;6.386;2024-02-23T02:21:39;13.27;;;2.40;;
51578;SDS011;47998;53.242;6.386;2024-02-23T02:24:06;8.98;;;2.50;;
51578;SDS011;47998;53.242;6.386;2024-02-23T02:26:32;12.10;;;1.77;;
51578;SDS011;47998;53.242;6.386;2024-02-23T02:28:58;11.32;;;2.15;;
51578;SDS011;47998;53.242;6.386;2024-02-23T02:31:24;15.23;;;1.83;;
51578;SDS011;47998;53.242;6.386;2024-02-23T02:33:49;10.60;;;2.30;;
51578;SDS011;47998;53.242;6.386;2024-02-23T02:36:15;10.95;;;1.75;;
51578;SDS011;47998;53.242;6.386;2024-02-23T02:38:41;8.40;;;1.70;;
51578;SDS011;47998;53.242;6.386;2024-02-23T02:41:07;9.32;;;2.00;;
51578;SDS011;47998;53.242;6.386;2024-02-23T02:43:33;7.10;;;1.40;;
51578;SDS011;47998;53.242;6.386;2024-02-23T02:45:59;15.68;;;3.38;;
51578;SDS011;47998;53.242;6.386;2024-02-23T02:48:24;17.30;;;3.85;;
51578;SDS011;47998;53.242;6.386;2024-02-23T02:50:50;9.52;;;1.77;;
51578;SDS011;47998;53.242;6.386;2024-02-23T02:53:16;13.20;;;2.50;;
51578;SDS011;47998;53.242;6.386;2024-02-23T02:55:43;9.70;;;1.65;;
51578;SDS011;47998;53.242;6.386;2024-02-23T02:58:13;10.00;;;2.22;;
51578;SDS011;47998;53.242;6.386;2024-02-23T03:00:39;14.38;;;2.15;;
51578;SDS011;47998;53.242;6.386;2024-02-23T03:03:05;12.18;;;1.90;;
51578;SDS011;47998;53.242;6.386;2024-02-23T03:05:31;21.35;;;3.63;;
51578;SDS011;47998;53.242;6.386;2024-02-23T03:07:57;13.93;;;2.22;;
51578;SDS011;47998;53.242;6.386;2024-02-23T03:10:22;9.70;;;1.45;;
51578;SDS011;47998;53.242;6.386;2024-02-23T03:12:48;10.60;;;1.48;;
51578;SDS011;47998;53.242;6.386;2024-02-23T03:15:14;7.53;;;1.55;;
51578;SDS011;47998;53.242;6.386;2024-02-23T03:17:40;6.82;;;0.95;;
51578;SDS011;47998;53.242;6.386;2024-02-23T03:20:06;14.98;;;1.73;;
51578;SDS011;47998;53.242;6.386;2024-02-23T03:22:36;8.70;;;1.15;;
51578;SDS011;47998;53.242;6.386;2024-02-23T03:25:02;12.40;;;3.10;;
51578;SDS011;47998;53.242;6.386;2024-02-23T03:27:37;5.22;;;1.25;;
51578;SDS011;47998;53.242;6.386;2024-02-23T03:30:03;11.40;;;1.83;;
51578;SDS011;47998;53.242;6.386;2024-02-23T03:32:30;6.80;;;1.60;;
51578;SDS011;47998;53.242;6.386;2024-02-23T03:35:01;8.80;;;1.75;;
51578;SDS011;47998;53.242;6.386;2024-02-23T03:37:30;7.38;;;1.30;;
51578;SDS011;47998;53.242;6.386;2024-02-23T03:39:56;9.52;;;1.42;;
51578;SDS011;47998;53.242;6.386;2024-02-23T03:42:22;13.52;;;2.15;;
51578;SDS011;47998;53.242;6.386;2024-02-23T03:44:48;6.25;;;1.15;;
51578;SDS011;47998;53.242;6.386;2024-02-23T03:47:14;13.63;;;2.17;;
51578;SDS011;47998;53.242;6.386;2024-02-23T03:49:40;11.27;;;1.48;;
51578;SDS011;47998;53.242;6.386;2024-02-23T03:52:05;8.68;;;2.38;;
51578;SDS011;47998;53.242;6.386;2024-02-23T03:54:31;12.32;;;1.92;;
51578;SDS011;47998;53.242;6.386;2024-02-23T03:56:57;8.15;;;1.67;;
51578;SDS011;47998;53.242;6.386;2024-02-23T03:59:23;10.55;;;2.10;;
51578;SDS011;47998;53.242;6.386;2024-02-23T04:01:49;15.38;;;2.72;;
51578;SDS011;47998;53.242;6.386;2024-02-23T04:04:15;13.30;;;1.52;;
51578;SDS011;47998;53.242;6.386;2024-02-23T04:06:40;7.90;;;1.38;;
51578;SDS011;47998;53.242;6.386;2024-02-23T04:09:06;8.02;;;1.10;;
51578;SDS011;47998;53.242;6.386;2024-02-23T04:11:33;6.93;;;1.13;;
51578;SDS011;47998;53.242;6.386;2024-02-23T04:13:59;12.95;;;1.40;;
51578;SDS011;47998;53.242;6.386;2024-02-23T04:16:25;9.95;;;2.10;;
51578;SDS011;47998;53.242;6.386;2024-02-23T04:18:52;7.88;;;0.77;;
51578;SDS011;47998;53.242;6.386;2024-02-23T04:21:18;9.18;;;1.52;;
51578;SDS011;47998;53.242;6.386;2024-02-23T04:23:44;7.70;;;2.00;;
51578;SDS011;47998;53.242;6.386;2024-02-23T04:26:10;11.05;;;1.58;;
51578;SDS011;47998;53.242;6.386;2024-02-23T04:28:39;8.27;;;1.40;;
51578;SDS011;47998;53.242;6.386;2024-02-23T04:31:05;7.97;;;1.25;;
51578;SDS011;47998;53.242;6.386;2024-02-23T04:33:30;5.55;;;1.30;;
51578;SDS011;47998;53.242;6.386;2024-02-23T04:35:57;12.18;;;1.13;;
51578;SDS011;47998;53.242;6.386;2024-02-23T04:38:22;11.43;;;1.95;;
51578;SDS011;47998;53.242;6.386;2024-02-23T04:40:48;7.25;;;1.33;;
51578;SDS011;47998;53.242;6.386;2024-02-23T04:43:14;9.02;;;1.05;;
51578;SDS011;47998;53.242;6.386;2024-02-23T04:45:39;13.50;;;2.05;;
51578;SDS011;47998;53.242;6.386;2024-02-23T04:48:05;10.43;;;1.10;;
51578;SDS011;47998;53.242;6.386;2024-02-23T04:50:31;14.10;;;1.58;;
51578;SDS011;47998;53.242;6.386;2024-02-23T04:52:57;12.38;;;1.90;;
51578;SDS011;47998;53.242;6.386;2024-02-23T04:55:23;9.52;;;1.17;;
51578;SDS011;47998;53.242;6.386;2024-02-23T04:57:48;6.90;;;0.95;;
51578;SDS011;47998;53.242;6.386;2024-02-23T05:00:14;9.23;;;1.48;;
51578;SDS011;47998;53.242;6.386;2024-02-23T05:02:40;7.60;;;1.08;;
51578;SDS011;47998;53.242;6.386;2024-02-23T05:05:06;8.68;;;1.70;;
51578;SDS011;47998;53.242;6.386;2024-02-23T05:07:33;12.45;;;1.60;;
51578;SDS011;47998;53.242;6.386;2024-02-23T05:09:59;8.48;;;1.70;;
51578;SDS011;47998;53.242;6.386;2024-02-23T05:12:25;12.25;;;1.30;;
51578;SDS011;47998;53.242;6.386;2024-02-23T05:14:51;10.73;;;2.03;;
51578;SDS011;47998;53.242;6.386;2024-02-23T05:17:17;12.85;;;1.90;;
51578;SDS011;47998;53.242;6.386;2024-02-23T05:19:42;6.75;;;1.13;;
51578;SDS011;47998;53.242;6.386;2024-02-23T05:22:08;12.85;;;1.85;;
51578;SDS011;47998;53.242;6.386;2024-02-23T05:24:34;7.00;;;1.20;;
51578;SDS011;47998;53.242;6.386;2024-02-23T05:27:00;7.90;;;2.10;;
51578;SDS011;47998;53.242;6.386;2024-02-23T05:29:27;8.82;;;0.95;;
51578;SDS011;47998;53.242;6.386;2024-02-23T05:31:53;7.88;;;1.35;;
51578;SDS011;47998;53.242;6.386;2024-02-23T05:34:19;5.95;;;1.10;;
51578;SDS011;47998;53.242;6.386;2024-02-23T05:36:46;7.07;;;1.60;;
51578;SDS011;47998;53.242;6.386;2024-02-23T05:39:13;7.90;;;1.75;;
51578;SDS011;47998;53.242;6.386;2024-02-23T05:41:40;7.22;;;0.95;;
51578;SDS011;47998;53.242;6.386;2024-02-23T05:44:06;7.55;;;1.40;;
51578;SDS011;47998;53.242;6.386;2024-02-23T05:46:33;11.75;;;1.40;;
51578;SDS011;47998;53.242;6.386;2024-02-23T05:48:59;8.50;;;1.20;;
51578;SDS011;47998;53.242;6.386;2024-02-23T05:51:25;17.55;;;2.60;;
51578;SDS011;47998;53.242;6.386;2024-02-23T05:53:51;9.90;;;1.60;;
51578;SDS011;47998;53.242;6.386;2024-02-23T05:56:17;8.57;;;1.67;;
51578;SDS011;47998;53.242;6.386;2024-02-23T05:58:42;9.13;;;1.63;;
51578;SDS011;47998;53.242;6.386;2024-02-23T06:01:08;6.60;;;0.80;;
51578;SDS011;47998;53.242;6.386;2024-02-23T06:03:34;9.63;;;1.42;;
51578;SDS011;47998;53.242;6.386;2024-02-23T06:06:00;11.18;;;1.60;;
51578;SDS011;47998;53.242;6.386;2024-02-23T06:08:26;9.95;;;1.73;;
51578;SDS011;47998;53.242;6.386;2024-02-23T06:10:51;7.65;;;1.38;;
51578;SDS011;47998;53.242;6.386;2024-02-23T06:13:17;9.40;;;2.35;;
51578;SDS011;47998;53.242;6.386;2024-02-23T06:15:43;10.65;;;2.30;;
51578;SDS011;47998;53.242;6.386;2024-02-23T06:18:08;10.73;;;2.00;;
51578;SDS011;47998;53.242;6.386;2024-02-23T06:20:34;10.77;;;2.30;;
51578;SDS011;47998;53.242;6.386;2024-02-23T06:23:00;30.08;;;3.72;;
51578;SDS011;47998;53.242;6.386;2024-02-23T06:25:26;17.13;;;5.00;;
51578;SDS011;47998;53.242;6.386;2024-02-23T06:27:51;13.90;;;2.97;;
51578;SDS011;47998;53.242;6.386;2024-02-23T06:30:17;11.23;;;3.65;;
51578;SDS011;47998;53.242;6.386;2024-02-23T06:32:42;7.53;;;3.25;;
51578;SDS011;47998;53.242;6.386;2024-02-23T06:35:10;14.13;;;3.70;;
51578;SDS011;47998;53.242;6.386;2024-02-23T06:37:37;12.98;;;3.38;;
51578;SDS011;47998;53.242;6.386;2024-02-23T06:40:02;8.93;;;3.45;;
51578;SDS011;47998;53.242;6.386;2024-02-23T06:42:29;12.40;;;4.07;;
51578;SDS011;47998;53.242;6.386;2024-02-23T06:44:55;12.30;;;3.33;;
51578;SDS011;47998;53.242;6.386;2024-02-23T06:47:20;12.93;;;3.20;;
51578;SDS011;47998;53.242;6.386;2024-02-23T06:49:47;9.95;;;3.28;;
51578;SDS011;47998;53.242;6.386;2024-02-23T06:52:12;11.20;;;3.22;;
51578;SDS011;47998;53.242;6.386;2024-02-23T06:54:39;11.18;;;3.70;;
51578;SDS011;47998;53.242;6.386;2024-02-23T06:57:04;10.90;;;3.40;;
51578;SDS011;47998;53.242;6.386;2024-02-23T06:59:30;11.02;;;3.45;;
51578;SDS011;47998;53.242;6.386;2024-02-23T07:01:57;9.80;;;3.70;;
51578;SDS011;47998;53.242;6.386;2024-02-23T07:04:23;9.43;;;3.72;;
51578;SDS011;47998;53.242;6.386;2024-02-23T07:06:49;16.83;;;5.22;;
51578;SDS011;47998;53.242;6.386;2024-02-23T07:09:14;12.65;;;4.45;;
51578;SDS011;47998;53.242;6.386;2024-02-23T07:11:40;13.00;;;4.53;;
51578;SDS011;47998;53.242;6.386;2024-02-23T07:14:08;11.32;;;4.68;;
51578;SDS011;47998;53.242;6.386;2024-02-23T07:16:38;14.30;;;5.32;;
51578;SDS011;47998;53.242;6.386;2024-02-23T07:19:07;10.83;;;5.77;;
51578;SDS011;47998;53.242;6.386;2024-02-23T07:21:33;13.40;;;5.38;;
51578;SDS011;47998;53.242;6.386;2024-02-23T07:23:59;13.55;;;5.40;;
51578;SDS011;47998;53.242;6.386;2024-02-23T07:26:25;14.32;;;5.60;;
51578;SDS011;47998;53.242;6.386;2024-02-23T07:28:53;14.23;;;5.35;;
51578;SDS011;47998;53.242;6.386;2024-02-23T07:31:19;16.10;;;6.32;;
51578;SDS011;47998;53.242;6.386;2024-02-23T07:33:44;11.43;;;4.80;;
51578;SDS011;47998;53.242;6.386;2024-02-23T07:36:13;8.57;;;4.53;;
51578;SDS011;47998;53.242;6.386;2024-02-23T07:38:40;10.75;;;4.45;;
51578;SDS011;47998;53.242;6.386;2024-02-23T07:41:05;11.68;;;4.15;;
51578;SDS011;47998;53.242;6.386;2024-02-23T07:43:31;8.60;;;3.67;;
51578;SDS011;47998;53.242;6.386;2024-02-23T07:45:57;8.15;;;4.28;;
51578;SDS011;47998;53.242;6.386;2024-02-23T07:48:22;8.85;;;3.92;;
51578;SDS011;47998;53.242;6.386;2024-02-23T07:50:48;11.45;;;4.30;;
51578;SDS011;47998;53.242;6.386;2024-02-23T07:53:14;8.15;;;4.18;;
51578;SDS011;47998;53.242;6.386;2024-02-23T07:55:39;13.48;;;3.97;;
51578;SDS011;47998;53.242;6.386;2024-02-23T07:58:05;7.78;;;3.55;;
51578;SDS011;47998;53.242;6.386;2024-02-23T08:00:31;9.43;;;4.20;;
51578;SDS011;47998;53.242;6.386;2024-02-23T08:02:57;12.55;;;4.03;;
51578;SDS011;47998;53.242;6.386;2024-02-23T08:05:24;13.07;;;3.35;;
51578;SDS011;47998;53.242;6.386;2024-02-23T08:07:49;2.83;;;2.28;;
51578;SDS011;47998;53.242;6.386;2024-02-23T08:10:15;6.03;;;3.38;;
51578;SDS011;47998;53.242;6.386;2024-02-23T08:12:41;8.32;;;3.53;;
51578;SDS011;47998;53.242;6.386;2024-02-23T08:15:07;8.32;;;3.60;;
51578;SDS011;47998;53.242;6.386;2024-02-23T08:17:32;10.65;;;3.90;;
51578;SDS011;47998;53.242;6.386;2024-02-23T08:19:58;8.10;;;3.38;;
51578;SDS011;47998;53.242;6.386;2024-02-23T08:22:24;11.85;;;3.80;;
51578;SDS011;47998;53.242;6.386;2024-02-23T08:24:49;11.57;;;4.50;;
51578;SDS011;47998;53.242;6.386;2024-02-23T08:27:16;8.93;;;4.00;;
51578;SDS011;47998;53.242;6.386;2024-02-23T08:29:42;7.10;;;2.90;;
51578;SDS011;47998;53.242;6.386;2024-02-23T08:32:08;6.30;;;3.75;;
51578;SDS011;47998;53.242;6.386;2024-02-23T08:34:34;4.68;;;3.00;;
51578;SDS011;47998;53.242;6.386;2024-02-23T08:37:00;7.45;;;3.95;;
51578;SDS011;47998;53.242;6.386;2024-02-23T08:39:26;19.02;;;7.25;;
51578;SDS011;47998;53.242;6.386;2024-02-23T08:41:52;11.80;;;6.63;;
51578;SDS011;47998;53.242;6.386;2024-02-23T08:44:18;16.48;;;8.07;;
51578;SDS011;47998;53.242;6.386;2024-02-23T08:46:44;16.88;;;7.32;;
51578;SDS011;47998;53.242;6.386;2024-02-23T08:49:10;14.05;;;7.32;;
51578;SDS011;47998;53.242;6.386;2024-02-23T08:51:35;8.20;;;3.88;;
51578;SDS011;47998;53.242;6.386;2024-02-23T08:54:01;13.18;;;4.70;;
51578;SDS011;47998;53.242;6.386;2024-02-23T08:56:29;10.77;;;3.95;;
51578;SDS011;47998;53.242;6.386;2024-02-23T08:58:55;10.48;;;4.97;;
51578;SDS011;47998;53.242;6.386;2024-02-23T09:01:21;8.98;;;5.40;;
51578;SDS011;47998;53.242;6.386;2024-02-23T09:03:47;11.45;;;2.88;;
51578;SDS011;47998;53.242;6.386;2024-02-23T09:06:13;7.22;;;2.20;;
51578;SDS011;47998;53.242;6.386;2024-02-23T09:08:38;7.43;;;1.70;;
51578;SDS011;47998;53.242;6.386;2024-02-23T09:11:06;5.45;;;1.55;;
51578;SDS011;47998;53.242;6.386;2024-02-23T09:13:31;4.13;;;1.23;;
51578;SDS011;47998;53.242;6.386;2024-02-23T09:15:57;5.47;;;1.40;;
51578;SDS011;47998;53.242;6.386;2024-02-23T09:18:23;3.88;;;1.13;;
51578;SDS011;47998;53.242;6.386;2024-02-23T09:20:49;8.45;;;2.45;;
51578;SDS011;47998;53.242;6.386;2024-02-23T09:23:14;6.25;;;1.83;;
51578;SDS011;47998;53.242;6.386;2024-02-23T09:25:40;8.15;;;1.90;;
51578;SDS011;47998;53.242;6.386;2024-02-23T09:28:06;4.93;;;1.17;;
51578;SDS011;47998;53.242;6.386;2024-02-23T09:30:32;3.08;;;1.17;;
51578;SDS011;47998;53.242;6.386;2024-02-23T09:32:58;3.55;;;1.38;;
51578;SDS011;47998;53.242;6.386;2024-02-23T09:35:24;4.57;;;1.08;;
51578;SDS011;47998;53.242;6.386;2024-02-23T09:37:49;6.10;;;1.25;;
51578;SDS011;47998;53.242;6.386;2024-02-23T09:40:15;9.07;;;1.73;;
51578;SDS011;47998;53.242;6.386;2024-02-23T09:42:41;4.07;;;1.15;;
51578;SDS011;47998;53.242;6.386;2024-02-23T09:45:07;3.13;;;1.25;;
51578;SDS011;47998;53.242;6.386;2024-02-23T09:47:36;5.00;;;1.25;;
51578;SDS011;47998;53.242;6.386;2024-02-23T09:50:03;5.75;;;1.83;;
51578;SDS011;47998;53.242;6.386;2024-02-23T09:52:30;6.53;;;1.70;;
51578;SDS011;47998;53.242;6.386;2024-02-23T09:54:57;5.97;;;1.45;;
51578;SDS011;47998;53.242;6.386;2024-02-23T09:57:23;7.18;;;1.52;;
51578;SDS011;47998;53.242;6.386;2024-02-23T09:59:49;6.68;;;1.17;;
51578;SDS011;47998;53.242;6.386;2024-02-23T10:02:16;3.28;;;1.00;;
51578;SDS011;47998;53.242;6.386;2024-02-23T10:04:43;9.52;;;1.13;;
51578;SDS011;47998;53.242;6.386;2024-02-23T10:07:09;5.13;;;1.27;;
51578;SDS011;47998;53.242;6.386;2024-02-23T10:09:35;2.45;;;0.65;;
51578;SDS011;47998;53.242;6.386;2024-02-23T10:12:01;3.95;;;1.15;;
51578;SDS011;47998;53.242;6.386;2024-02-23T10:14:28;11.27;;;1.63;;
51578;SDS011;47998;53.242;6.386;2024-02-23T10:16:53;3.90;;;0.95;;
51578;SDS011;47998;53.242;6.386;2024-02-23T10:19:20;4.75;;;0.88;;
51578;SDS011;47998;53.242;6.386;2024-02-23T10:21:47;3.55;;;0.82;;
51578;SDS011;47998;53.242;6.386;2024-02-23T10:24:13;5.20;;;1.00;;
51578;SDS011;47998;53.242;6.386;2024-02-23T10:26:43;6.90;;;1.20;;
51578;SDS011;47998;53.242;6.386;2024-02-23T10:29:09;6.85;;;1.30;;
51578;SDS011;47998;53.242;6.386;2024-02-23T10:31:36;7.40;;;1.08;;
51578;SDS011;47998;53.242;6.386;2024-02-23T10:34:08;4.95;;;1.13;;
51578;SDS011;47998;53.242;6.386;2024-02-23T10:36:40;6.63;;;0.90;;
51578;SDS011;47998;53.242;6.386;2024-02-23T10:39:10;7.55;;;1.27;;
51578;SDS011;47998;53.242;6.386;2024-02-23T10:41:41;4.80;;;1.10;;
51578;SDS011;47998;53.242;6.386;2024-02-23T10:44:11;5.32;;;0.85;;
51578;SDS011;47998;53.242;6.386;2024-02-23T10:46:38;4.38;;;1.58;;
51578;SDS011;47998;53.242;6.386;2024-02-23T10:49:06;4.70;;;1.05;;
51578;SDS011;47998;53.242;6.386;2024-02-23T10:51:32;6.78;;;1.08;;
51578;SDS011;47998;53.242;6.386;2024-02-23T10:53:58;10.15;;;2.28;;
51578;SDS011;47998;53.242;6.386;2024-02-23T10:56:25;3.03;;;0.63;;
51578;SDS011;47998;53.242;6.386;2024-02-23T10:58:52;3.92;;;1.00;;
51578;SDS011;47998;53.242;6.386;2024-02-23T11:01:18;3.15;;;0.98;;
51578;SDS011;47998;53.242;6.386;2024-02-23T11:03:45;5.18;;;0.77;;
51578;SDS011;47998;53.242;6.386;2024-02-23T11:06:15;3.90;;;0.60;;
51578;SDS011;47998;53.242;6.386;2024-02-23T11:08:46;5.63;;;1.05;;
51578;SDS011;47998;53.242;6.386;2024-02-23T11:11:12;2.72;;;0.98;;
51578;SDS011;47998;53.242;6.386;2024-02-23T11:13:42;7.93;;;1.40;;
51578;SDS011;47998;53.242;6.386;2024-02-23T11:16:09;4.93;;;0.82;;
51578;SDS011;47998;53.242;6.386;2024-02-23T11:18:35;6.22;;;1.02;;
51578;SDS011;47998;53.242;6.386;2024-02-23T11:21:03;5.03;;;0.80;;
51578;SDS011;47998;53.242;6.386;2024-02-23T11:23:44;3.58;;;0.90;;
51578;SDS011;47998;53.242;6.386;2024-02-23T11:26:16;6.47;;;0.80;;
51578;SDS011;47998;53.242;6.386;2024-02-23T11:28:51;5.95;;;1.02;;
51578;SDS011;47998;53.242;6.386;2024-02-23T11:31:19;9.18;;;1.30;;
51578;SDS011;47998;53.242;6.386;2024-02-23T11:33:53;4.47;;;0.98;;
51578;SDS011;47998;53.242;6.386;2024-02-23T11:36:29;3.90;;;1.55;;
51578;SDS011;47998;53.242;6.386;2024-02-23T11:38:58;5.78;;;1.25;;
51578;SDS011;47998;53.242;6.386;2024-02-23T11:41:25;4.00;;;0.82;;
51578;SDS011;47998;53.242;6.386;2024-02-23T11:43:52;2.47;;;1.08;;
51578;SDS011;47998;53.242;6.386;2024-02-23T11:46:19;3.30;;;1.17;;
51578;SDS011;47998;53.242;6.386;2024-02-23T11:48:45;3.13;;;0.93;;
51578;SDS011;47998;53.242;6.386;2024-02-23T11:51:12;6.38;;;1.05;;
51578;SDS011;47998;53.242;6.386;2024-02-23T11:53:39;6.63;;;0.95;;
51578;SDS011;47998;53.242;6.386;2024-02-23T11:56:05;4.65;;;0.90;;
51578;SDS011;47998;53.242;6.386;2024-02-23T11:58:32;6.57;;;0.90;;
51578;SDS011;47998;53.242;6.386;2024-02-23T12:00:59;3.00;;;1.20;;
51578;SDS011;47998;53.242;6.386;2024-02-23T12:03:28;3.95;;;1.00;;
51578;SDS011;47998;53.242;6.386;2024-02-23T12:05:55;5.68;;;1.60;;
51578;SDS011;47998;53.242;6.386;2024-02-23T12:08:27;7.15;;;1.10;;
51578;SDS011;47998;53.242;6.386;2024-02-23T12:10:57;4.43;;;0.70;;
51578;SDS011;47998;53.242;6.386;2024-02-23T12:13:25;4.40;;;0.77;;
51578;SDS011;47998;53.242;6.386;2024-02-23T12:15:52;4.65;;;1.27;;
51578;SDS011;47998;53.242;6.386;2024-02-23T12:18:21;4.45;;;1.23;;
51578;SDS011;47998;53.242;6.386;2024-02-23T12:20:48;2.53;;;0.60;;
51578;SDS011;47998;53.242;6.386;2024-02-23T12:23:14;3.70;;;0.80;;
51578;SDS011;47998;53.242;6.386;2024-02-23T12:25:40;3.75;;;1.15;;
51578;SDS011;47998;53.242;6.386;2024-02-23T12:28:17;3.75;;;0.77;;
51578;SDS011;47998;53.242;6.386;2024-02-23T12:30:43;6.13;;;0.80;;
51578;SDS011;47998;53.242;6.386;2024-02-23T12:33:12;2.47;;;0.70;;
51578;SDS011;47998;53.242;6.386;2024-02-23T12:35:41;6.60;;;1.20;;
51578;SDS011;47998;53.242;6.386;2024-02-23T12:38:06;5.45;;;0.85;;
51578;SDS011;47998;53.242;6.386;2024-02-23T12:40:32;2.58;;;0.73;;
51578;SDS011;47998;53.242;6.386;2024-02-23T12:42:58;1.95;;;0.70;;
51578;SDS011;47998;53.242;6.386;2024-02-23T12:45:23;4.75;;;0.85;;
51578;SDS011;47998;53.242;6.386;2024-02-23T12:47:49;3.53;;;0.90;;
51578;SDS011;47998;53.242;6.386;2024-02-23T12:50:15;5.55;;;1.77;;
51578;SDS011;47998;53.242;6.386;2024-02-23T12:52:41;3.45;;;0.88;;
51578;SDS011;47998;53.242;6.386;2024-02-23T12:55:08;3.78;;;0.82;;
51578;SDS011;47998;53.242;6.386;2024-02-23T12:57:34;4.00;;;1.33;;
51578;SDS011;47998;53.242;6.386;2024-02-23T13:00:00;2.70;;;0.82;;
51578;SDS011;47998;53.242;6.386;2024-02-23T13:02:25;1.63;;;0.90;;
51578;SDS011;47998;53.242;6.386;2024-02-23T13:04:51;5.75;;;1.58;;
51578;SDS011;47998;53.242;6.386;2024-02-23T13:07:17;4.88;;;1.27;;
51578;SDS011;47998;53.242;6.386;2024-02-23T13:09:43;4.53;;;1.00;;
51578;SDS011;47998;53.242;6.386;2024-02-23T13:12:09;2.00;;;0.80;;
51578;SDS011;47998;53.242;6.386;2024-02-23T13:14:35;6.85;;;1.75;;
51578;SDS011;47998;53.242;6.386;2024-02-23T13:17:01;5.85;;;1.15;;
51578;SDS011;47998;53.242;6.386;2024-02-23T13:19:26;9.70;;;1.52;;
51578;SDS011;47998;53.242;6.386;2024-02-23T13:21:52;6.25;;;1.23;;
51578;SDS011;47998;53.242;6.386;2024-02-23T13:24:18;7.13;;;2.33;;
51578;SDS011;47998;53.242;6.386;2024-02-23T13:26:44;4.60;;;1.08;;
51578;SDS011;47998;53.242;6.386;2024-02-23T13:29:10;2.88;;;0.75;;
51578;SDS011;47998;53.242;6.386;2024-02-23T13:31:36;3.75;;;0.98;;
51578;SDS011;47998;53.242;6.386;2024-02-23T13:34:03;5.20;;;1.40;;
51578;SDS011;47998;53.242;6.386;2024-02-23T13:36:29;4.95;;;1.20;;
51578;SDS011;47998;53.242;6.386;2024-02-23T13:38:54;8.80;;;1.35;;
51578;SDS011;47998;53.242;6.386;2024-02-23T13:41:20;2.17;;;0.93;;
51578;SDS011;47998;53.242;6.386;2024-02-23T13:43:46;4.13;;;1.00;;
51578;SDS011;47998;53.242;6.386;2024-02-23T13:46:11;4.28;;;1.30;;
51578;SDS011;47998;53.242;6.386;2024-02-23T13:48:37;4.97;;;1.20;;
51578;SDS011;47998;53.242;6.386;2024-02-23T13:51:03;3.15;;;1.10;;
51578;SDS011;47998;53.242;6.386;2024-02-23T13:53:30;5.35;;;1.13;;
51578;SDS011;47998;53.242;6.386;2024-02-23T13:55:58;4.07;;;1.10;;
51578;SDS011;47998;53.242;6.386;2024-02-23T13:58:24;6.28;;;1.48;;
51578;SDS011;47998;53.242;6.386;2024-02-23T14:00:49;8.80;;;1.60;;
51578;SDS011;47998;53.242;6.386;2024-02-23T14:03:16;3.65;;;0.90;;
51578;SDS011;47998;53.242;6.386;2024-02-23T14:05:46;8.02;;;1.33;;
51578;SDS011;47998;53.242;6.386;2024-02-23T14:08:12;7.05;;;1.55;;
51578;SDS011;47998;53.242;6.386;2024-02-23T14:10:38;6.63;;;0.73;;
51578;SDS011;47998;53.242;6.386;2024-02-23T14:13:05;1.25;;;0.13;;
51578;SDS011;47998;53.242;6.386;2024-02-23T14:15:31;3.65;;;0.70;;
51578;SDS011;47998;53.242;6.386;2024-02-23T14:17:57;2.90;;;0.82;;
51578;SDS011;47998;53.242;6.386;2024-02-23T14:20:23;2.85;;;0.85;;
51578;SDS011;47998;53.242;6.386;2024-02-23T14:22:48;2.08;;;0.60;;
51578;SDS011;47998;53.242;6.386;2024-02-23T14:25:15;10.27;;;0.60;;
51578;SDS011;47998;53.242;6.386;2024-02-23T14:27:41;2.88;;;0.82;;
51578;SDS011;47998;53.242;6.386;2024-02-23T14:30:07;5.55;;;0.52;;
51578;SDS011;47998;53.242;6.386;2024-02-23T14:32:33;3.88;;;0.70;;
51578;SDS011;47998;53.242;6.386;2024-02-23T14:35:01;4.13;;;0.80;;
51578;SDS011;47998;53.242;6.386;2024-02-23T14:37:28;4.63;;;1.10;;